Time;durP1;ratioP1;P1;durP2;ratioP2;P2;SDS_P1;SDS_P2;PMS_P1;PMS_P2;Temp;Humidity;BMP_temperature;BMP_pressure;BME280_temperature;BME280_humidity;BME280_pressure;Samples;Min_cycle;Max_cycle;Signal;HPM_P1;HPM_P2
2022/06/24 00:02:00;;;;;;;1.85;1.60;;;21.70;99.90;;;;;;5067671;28;20044;-63
2022/06/24 00:04:28;;;;;;;4.90;1.65;;;21.60;99.90;;;;;;5072900;28;20486;-64
2022/06/24 00:06:56;;;;;;;1.80;1.70;;;21.60;99.90;;;;;;5071703;28;20049;-63
2022/06/24 00:09:26;;;;;;;3.47;1.98;;;21.70;99.90;;;;;;5072415;28;20086;-64
2022/06/24 00:12:08;;;;;;;3.60;2.30;;;21.50;99.90;;;;;;5072144;28;20044;-63
2022/06/24 00:14:36;;;;;;;2.45;2.00;;;21.50;99.90;;;;;;5071773;28;20089;-64
2022/06/24 00:17:07;;;;;;;3.13;1.83;;;21.50;99.90;;;;;;5072203;28;20055;-64
2022/06/24 00:19:50;;;;;;;2.70;1.70;;;21.50;99.90;;;;;;5071100;28;20127;-64
2022/06/24 00:22:16;;;;;;;2.38;2.17;;;21.40;99.90;;;;;;5071587;28;20051;-63
2022/06/24 00:24:42;;;;;;;2.30;1.73;;;21.40;99.90;;;;;;5072624;28;20044;-64
2022/06/24 00:27:19;;;;;;;2.63;1.85;;;21.50;99.90;;;;;;5071823;28;20099;-63
2022/06/24 00:29:45;;;;;;;1.67;1.58;;;21.50;99.90;;;;;;5071388;28;20037;-63
2022/06/24 00:32:11;;;;;;;2.92;1.90;;;21.40;99.90;;;;;;5072267;28;20044;-63
2022/06/24 00:34:39;;;;;;;2.25;1.85;;;21.40;99.90;;;;;;5072143;28;20038;-63
2022/06/24 00:37:29;;;;;;;1.50;1.38;;;21.30;99.90;;;;;;5071097;28;20052;-63
2022/06/24 00:40:02;;;;;;;2.13;1.65;;;21.30;99.90;;;;;;5072218;28;20054;-64
2022/06/24 00:42:29;;;;;;;2.00;1.80;;;21.20;99.90;;;;;;5071682;28;20090;-64
2022/06/24 00:45:36;;;;;;;3.45;2.08;;;21.20;99.90;;;;;;5072190;28;20056;-64
2022/06/24 00:48:08;;;;;;;2.35;1.88;;;21.20;99.90;;;;;;5068515;28;20298;-63
2022/06/24 00:50:39;;;;;;;2.58;2.00;;;21.20;99.90;;;;;;5071790;28;20105;-63
2022/06/24 00:53:05;;;;;;;3.10;2.22;;;21.10;99.90;;;;;;5072307;28;20052;-63
2022/06/24 00:55:34;;;;;;;2.00;1.70;;;21.10;99.90;;;;;;5072189;28;20411;-63
2022/06/24 00:58:01;;;;;;;2.75;1.80;;;21.10;99.90;;;;;;5071093;28;20079;-63
2022/06/24 01:00:30;;;;;;;2.00;1.80;;;21.10;99.90;;;;;;5072284;28;20511;-63
2022/06/24 01:03:01;;;;;;;1.92;1.52;;;20.90;99.90;;;;;;5070265;28;20554;-63
2022/06/24 01:05:27;;;;;;;3.30;1.67;;;20.90;99.90;;;;;;5072146;28;20498;-64
2022/06/24 01:07:53;;;;;;;4.13;2.10;;;20.90;99.90;;;;;;5071871;28;20059;-64
2022/06/24 01:10:19;;;;;;;2.13;1.73;;;20.90;99.90;;;;;;5071017;28;20040;-63
2022/06/24 01:12:45;;;;;;;3.65;1.85;;;20.90;99.90;;;;;;5071515;28;20068;-64
2022/06/24 01:15:11;;;;;;;4.53;2.35;;;21.00;99.90;;;;;;5068194;28;20056;-64
2022/06/24 01:17:37;;;;;;;2.97;1.60;;;20.90;99.90;;;;;;5067965;28;20098;-63
2022/06/24 01:20:12;;;;;;;1.88;1.77;;;21.00;99.90;;;;;;5068364;28;20123;-63
2022/06/24 01:22:39;;;;;;;3.10;1.77;;;21.00;99.90;;;;;;5068538;28;20043;-64
2022/06/24 01:25:07;;;;;;;2.80;1.85;;;21.10;99.90;;;;;;5067634;28;20943;-63
2022/06/24 01:27:32;;;;;;;1.80;1.70;;;21.00;99.90;;;;;;5068642;28;20045;-64
2022/06/24 01:29:58;;;;;;;3.58;2.25;;;21.00;99.90;;;;;;5068033;28;20040;-63
2022/06/24 01:32:24;;;;;;;3.55;2.20;;;20.90;99.90;;;;;;5067559;28;20084;-64
2022/06/24 01:34:50;;;;;;;3.15;1.83;;;20.90;99.90;;;;;;5068269;28;20063;-63
2022/06/24 01:37:15;;;;;;;3.55;2.00;;;20.90;99.90;;;;;;5068281;28;20046;-64
2022/06/24 01:39:41;;;;;;;2.88;2.00;;;20.80;99.90;;;;;;5067365;28;20048;-63
2022/06/24 01:42:07;;;;;;;1.83;1.73;;;20.80;99.90;;;;;;5067714;28;20076;-63
2022/06/24 01:44:34;;;;;;;2.58;2.35;;;20.70;99.90;;;;;;5068248;28;20086;-63
2022/06/24 01:46:59;;;;;;;3.33;2.10;;;20.70;99.90;;;;;;5066900;28;20059;-63
2022/06/24 01:49:25;;;;;;;4.47;2.10;;;20.60;99.90;;;;;;5067409;28;20276;-63
2022/06/24 01:51:54;;;;;;;3.20;2.08;;;20.80;99.90;;;;;;5067749;28;20075;-64
2022/06/24 01:54:19;;;;;;;4.22;2.10;;;20.60;99.90;;;;;;5067142;28;20048;-62
2022/06/24 01:56:45;;;;;;;3.50;2.30;;;20.60;99.90;;;;;;5067532;28;20064;-63
2022/06/24 01:59:11;;;;;;;5.88;2.03;;;20.50;99.90;;;;;;5067050;28;20037;-64
2022/06/24 02:01:36;;;;;;;2.35;1.88;;;20.50;99.90;;;;;;5067930;28;20491;-64
2022/06/24 02:04:02;;;;;;;2.63;2.10;;;20.50;99.90;;;;;;5067834;28;20582;-63
2022/06/24 02:06:28;;;;;;;1.98;1.88;;;20.50;99.90;;;;;;5065632;28;20517;-63
2022/06/24 02:08:55;;;;;;;4.07;2.15;;;20.40;99.90;;;;;;5067598;28;20112;-63
2022/06/24 02:14:07;;;;;;;4.10;2.15;;;20.30;99.90;;;;;;5065247;28;20378;-63
2022/06/24 02:16:33;;;;;;;2.50;2.00;;;20.30;99.90;;;;;;5067639;28;20055;-63
2022/06/24 02:18:59;;;;;;;5.07;2.00;;;20.30;99.90;;;;;;5067123;28;20471;-63
2022/06/24 02:21:26;;;;;;;2.67;1.88;;;20.20;99.90;;;;;;5066801;28;20044;-64
2022/06/24 02:23:53;;;;;;;3.97;2.10;;;20.20;99.90;;;;;;5065795;28;20123;-64
2022/06/24 02:26:19;;;;;;;2.70;1.60;;;20.20;99.90;;;;;;5066247;28;20051;-63
2022/06/24 02:28:45;;;;;;;2.30;2.10;;;20.20;99.90;;;;;;5066483;28;20058;-63
2022/06/24 02:31:11;;;;;;;2.80;2.45;;;20.20;99.90;;;;;;5067200;28;20053;-66
2022/06/24 02:33:37;;;;;;;3.40;2.15;;;20.20;99.90;;;;;;5067275;28;20060;-66
2022/06/24 02:36:03;;;;;;;4.30;1.98;;;20.00;99.90;;;;;;5066113;28;20045;-64
2022/06/24 02:38:29;;;;;;;5.22;2.40;;;20.10;99.90;;;;;;5065891;28;20067;-66
2022/06/24 02:40:57;;;;;;;4.80;2.60;;;20.10;99.90;;;;;;5066933;28;20226;-65
2022/06/24 02:43:24;;;;;;;3.13;2.50;;;20.00;99.90;;;;;;5066696;28;20077;-64
2022/06/24 02:45:57;;;;;;;3.95;2.80;;;20.10;99.90;;;;;;5065277;28;20040;-64
2022/06/24 02:48:23;;;;;;;2.83;2.60;;;20.10;99.90;;;;;;5066269;28;20051;-65
2022/06/24 02:50:49;;;;;;;3.60;2.83;;;20.10;99.90;;;;;;5066278;28;20040;-64
2022/06/24 02:53:16;;;;;;;2.92;2.72;;;20.10;99.90;;;;;;5065201;28;20052;-64
2022/06/24 02:55:47;;;;;;;3.70;2.72;;;20.10;99.90;;;;;;5066150;28;20095;-65
2022/06/24 02:58:14;;;;;;;4.38;2.95;;;20.10;99.90;;;;;;5065326;28;20071;-64
2022/06/24 03:00:41;;;;;;;2.65;2.45;;;20.10;99.90;;;;;;5066681;28;20041;-64
2022/06/24 03:03:08;;;;;;;3.47;2.45;;;20.00;99.90;;;;;;5065415;28;20091;-64
2022/06/24 03:05:34;;;;;;;3.50;2.75;;;20.00;99.90;;;;;;5066891;28;20084;-66
2022/06/24 03:07:59;;;;;;;2.92;2.72;;;20.00;99.90;;;;;;5066344;28;20083;-64
2022/06/24 03:10:25;;;;;;;3.95;2.63;;;20.20;99.90;;;;;;5066179;28;20556;-64
2022/06/24 03:12:51;;;;;;;3.17;2.88;;;20.00;99.90;;;;;;5066044;28;20041;-65
2022/06/24 03:15:17;;;;;;;2.78;2.58;;;20.00;99.90;;;;;;5066496;28;20058;-64
2022/06/24 03:17:42;;;;;;;3.20;2.90;;;20.00;99.90;;;;;;5064358;28;20376;-65
2022/06/24 03:20:09;;;;;;;3.47;3.17;;;20.00;99.90;;;;;;5065702;28;20052;-65
2022/06/24 03:22:35;;;;;;;3.53;3.00;;;20.00;99.90;;;;;;5067020;28;20045;-64
2022/06/24 03:25:02;;;;;;;4.05;2.58;;;19.90;99.90;;;;;;5065527;28;20048;-65
2022/06/24 03:27:27;;;;;;;4.82;2.92;;;19.90;99.90;;;;;;5064994;28;20072;-64
2022/06/24 03:29:53;;;;;;;3.38;3.08;;;19.90;99.90;;;;;;5064909;28;20092;-64
2022/06/24 03:32:18;;;;;;;3.15;2.95;;;19.90;99.90;;;;;;5064499;28;20131;-64
2022/06/24 03:34:44;;;;;;;4.07;3.17;;;19.80;99.90;;;;;;5066183;28;20047;-64
2022/06/24 03:37:10;;;;;;;4.20;3.42;;;19.80;99.90;;;;;;5063559;28;20048;-64
2022/06/24 03:39:36;;;;;;;3.00;2.70;;;19.80;99.90;;;;;;5065513;28;20052;-64
2022/06/24 03:42:02;;;;;;;5.00;3.63;;;19.80;99.90;;;;;;5064875;28;20384;-64
2022/06/24 03:44:28;;;;;;;4.53;3.15;;;19.80;99.90;;;;;;5065948;28;20119;-64
2022/06/24 03:46:53;;;;;;;2.85;2.58;;;19.80;99.90;;;;;;5065285;28;20643;-64
2022/06/24 03:49:19;;;;;;;3.15;2.92;;;19.80;99.90;;;;;;5065794;28;20719;-64
2022/06/24 03:51:46;;;;;;;4.82;3.00;;;19.80;99.90;;;;;;5063738;28;20048;-64
2022/06/24 03:54:11;;;;;;;4.70;2.72;;;19.70;99.90;;;;;;5065877;28;20399;-64
2022/06/24 03:56:37;;;;;;;5.03;3.33;;;19.70;99.90;;;;;;5065589;28;20056;-64
2022/06/24 03:59:03;;;;;;;3.58;2.63;;;19.70;99.90;;;;;;5064916;28;20065;-64
2022/06/24 04:01:28;;;;;;;5.20;3.10;;;19.70;99.90;;;;;;5064326;28;20048;-64
2022/06/24 04:03:54;;;;;;;4.38;3.10;;;19.70;99.90;;;;;;5065891;28;20415;-64
2022/06/24 04:06:20;;;;;;;4.03;3.33;;;19.70;99.90;;;;;;5063574;28;20442;-63
2022/06/24 04:08:46;;;;;;;5.95;2.85;;;19.80;99.90;;;;;;5065600;28;20131;-63
2022/06/24 04:11:13;;;;;;;8.02;3.55;;;19.70;99.90;;;;;;5065576;28;20051;-64
2022/06/24 04:13:39;;;;;;;2.95;2.65;;;19.70;99.90;;;;;;5065219;28;20036;-64
2022/06/24 04:16:05;;;;;;;5.50;3.58;;;19.70;99.90;;;;;;5065512;28;20521;-64
2022/06/24 04:18:31;;;;;;;18.58;4.10;;;19.70;99.90;;;;;;5066070;28;20048;-63
2022/06/24 04:20:57;;;;;;;3.53;2.70;;;19.60;99.90;;;;;;5064966;28;20045;-64
2022/06/24 04:23:23;;;;;;;6.85;3.42;;;19.60;99.90;;;;;;5065621;28;20389;-64
2022/06/24 04:25:49;;;;;;;3.63;3.10;;;19.70;99.90;;;;;;5065325;28;20402;-64
2022/06/24 04:28:15;;;;;;;11.27;3.70;;;19.80;99.90;;;;;;5065257;28;20391;-64
2022/06/24 04:30:41;;;;;;;6.75;3.88;;;19.70;99.90;;;;;;5065850;28;20155;-63
2022/06/24 04:33:07;;;;;;;3.60;3.30;;;19.80;99.90;;;;;;5065149;28;20041;-64
2022/06/24 04:35:33;;;;;;;5.20;3.15;;;19.80;99.90;;;;;;5064873;28;20085;-64
2022/06/24 04:37:58;;;;;;;5.82;3.58;;;20.10;99.90;;;;;;5065573;28;20051;-63
2022/06/24 04:40:24;;;;;;;8.60;4.25;;;19.80;99.90;;;;;;5065834;28;20505;-64
2022/06/24 04:42:50;;;;;;;4.38;3.60;;;19.80;99.90;;;;;;5062929;28;20047;-63
2022/06/24 04:45:16;;;;;;;4.85;4.22;;;19.90;99.90;;;;;;5065167;28;20052;-64
2022/06/24 04:47:41;;;;;;;7.80;3.67;;;19.80;99.90;;;;;;5065540;28;20119;-64
2022/06/24 04:50:08;;;;;;;17.35;3.92;;;19.90;99.90;;;;;;5065979;28;20051;-64
2022/06/24 04:52:34;;;;;;;4.60;3.97;;;19.90;99.90;;;;;;5069580;28;20039;-64
2022/06/24 04:55:01;;;;;;;3.53;3.20;;;19.90;99.90;;;;;;5068280;28;20122;-64
2022/06/24 04:57:27;;;;;;;5.20;3.15;;;20.00;99.90;;;;;;5069488;28;20066;-64
2022/06/24 04:59:52;;;;;;;4.35;3.53;;;20.10;99.90;;;;;;5068915;28;20442;-64
2022/06/24 05:02:18;;;;;;;3.95;3.10;;;20.10;99.90;;;;;;5068228;28;20145;-64
2022/06/24 05:04:44;;;;;;;6.80;3.70;;;20.40;99.90;;;;;;5067796;28;20052;-64
2022/06/24 05:07:10;;;;;;;5.95;3.38;;;20.30;99.90;;;;;;5068580;28;20040;-64
2022/06/24 05:09:36;;;;;;;6.47;3.40;;;20.30;99.90;;;;;;5068174;28;20090;-64
2022/06/24 05:12:02;;;;;;;7.03;3.33;;;20.40;99.90;;;;;;5068836;28;20041;-64
2022/06/24 05:14:29;;;;;;;5.57;3.30;;;20.40;99.90;;;;;;5068593;28;20044;-64
2022/06/24 05:16:55;;;;;;;12.20;3.72;;;20.40;99.90;;;;;;5067977;28;20071;-63
2022/06/24 05:19:21;;;;;;;7.63;3.70;;;20.40;99.90;;;;;;5068709;28;20567;-64
2022/06/24 05:21:47;;;;;;;5.80;3.35;;;20.40;99.90;;;;;;5067922;28;20048;-64
2022/06/24 05:24:12;;;;;;;5.25;3.70;;;20.50;99.90;;;;;;5066808;28;20044;-64
2022/06/24 05:26:41;;;;;;;4.03;3.63;;;20.50;99.90;;;;;;5068601;28;20044;-64
2022/06/24 05:29:07;;;;;;;4.30;3.90;;;20.50;99.90;;;;;;5068042;28;20044;-64
2022/06/24 05:31:33;;;;;;;7.15;4.95;;;20.50;99.90;;;;;;5067907;28;20043;-64
2022/06/24 05:33:58;;;;;;;9.88;5.75;;;20.30;99.90;;;;;;5068014;28;20762;-64
2022/06/24 05:36:24;;;;;;;7.20;5.60;;;20.60;99.90;;;;;;5068710;28;20102;-64
2022/06/24 05:38:50;;;;;;;8.02;5.72;;;20.60;99.90;;;;;;5067210;28;20833;-64
2022/06/24 05:41:17;;;;;;;9.00;7.10;;;20.60;99.90;;;;;;5066696;28;20299;-64
2022/06/24 05:43:44;;;;;;;13.55;6.68;;;20.70;99.90;;;;;;5066840;28;20703;-64
2022/06/24 05:46:10;;;;;;;8.88;6.88;;;20.80;99.90;;;;;;5067082;28;20124;-64
2022/06/24 05:48:36;;;;;;;8.50;7.30;;;20.90;99.90;;;;;;5068207;28;20127;-64
2022/06/24 05:51:10;;;;;;;10.13;8.00;;;20.90;99.90;;;;;;5068206;28;20119;-64
2022/06/24 05:56:21;;;;;;;10.48;5.05;;;21.00;99.90;;;;;;5068006;28;20489;-64
2022/06/24 05:58:47;;;;;;;12.40;3.97;;;21.10;99.90;;;;;;5066990;28;20099;-64
2022/06/24 06:01:13;;;;;;;7.85;3.15;;;21.00;99.90;;;;;;5067410;28;20063;-64
2022/06/24 06:03:40;;;;;;;9.00;3.20;;;21.00;99.90;;;;;;5067858;28;20097;-64
2022/06/24 06:06:07;;;;;;;5.20;2.70;;;21.00;99.90;;;;;;5066755;28;20439;-64
2022/06/24 06:08:34;;;;;;;7.97;3.80;;;21.00;99.90;;;;;;5066857;28;20054;-64
2022/06/24 06:10:59;;;;;;;7.32;2.90;;;21.00;99.90;;;;;;5067731;28;20044;-64
2022/06/24 06:13:25;;;;;;;4.97;2.90;;;20.90;99.90;;;;;;5065774;28;20079;-64
2022/06/24 06:15:51;;;;;;;6.10;3.05;;;20.90;99.90;;;;;;5065887;28;20101;-64
2022/06/24 06:18:17;;;;;;;6.55;2.75;;;20.90;99.90;;;;;;5067444;28;20119;-64
2022/06/24 06:20:42;;;;;;;7.45;3.58;;;20.80;99.90;;;;;;5066479;28;20040;-64
2022/06/24 06:23:08;;;;;;;8.10;3.25;;;20.80;99.90;;;;;;5065559;28;20125;-64
2022/06/24 06:25:33;;;;;;;8.15;3.30;;;20.80;99.90;;;;;;5067183;28;20088;-64
2022/06/24 06:28:01;;;;;;;4.80;3.08;;;20.70;99.90;;;;;;5066380;28;20238;-64
2022/06/24 06:30:30;;;;;;;7.40;3.85;;;20.60;99.90;;;;;;5067702;28;20036;-64
2022/06/24 06:32:56;;;;;;;12.02;4.03;;;20.50;99.90;;;;;;5067376;28;20076;-63
2022/06/24 06:35:21;;;;;;;10.93;4.35;;;20.50;99.90;;;;;;5066173;28;20499;-63
2022/06/24 06:37:47;;;;;;;13.48;5.05;;;20.50;99.90;;;;;;5067156;28;20424;-63
2022/06/24 06:40:13;;;;;;;9.20;4.13;;;20.40;99.90;;;;;;5067031;28;20047;-63
2022/06/24 06:42:38;;;;;;;8.35;4.85;;;20.40;99.90;;;;;;5066304;28;20041;-64
2022/06/24 06:45:05;;;;;;;7.85;4.15;;;20.40;99.90;;;;;;5067104;28;20119;-63
2022/06/24 06:47:31;;;;;;;6.18;3.88;;;20.30;99.90;;;;;;5066740;28;20044;-63
2022/06/24 06:49:57;;;;;;;7.55;4.40;;;20.30;99.90;;;;;;5066812;28;20406;-63
2022/06/24 06:52:22;;;;;;;6.50;3.38;;;20.30;99.90;;;;;;5067179;28;20051;-64
2022/06/24 06:54:48;;;;;;;6.63;3.63;;;20.30;99.90;;;;;;5065809;28;20544;-63
2022/06/24 06:57:14;;;;;;;3.97;3.22;;;20.30;99.90;;;;;;5064828;28;20251;-63
2022/06/24 06:59:39;;;;;;;7.82;3.88;;;20.40;99.90;;;;;;5066427;28;20041;-63
2022/06/24 07:02:06;;;;;;;7.35;4.38;;;20.40;99.90;;;;;;5065662;28;20055;-63
2022/06/24 07:04:31;;;;;;;5.55;3.78;;;20.40;99.90;;;;;;5066915;28;20060;-64
2022/06/24 07:06:57;;;;;;;7.20;3.22;;;20.40;99.90;;;;;;5065122;28;20055;-63
2022/06/24 07:09:23;;;;;;;9.00;3.80;;;20.50;99.90;;;;;;5064835;28;20052;-64
2022/06/24 07:11:48;;;;;;;6.45;3.90;;;20.50;99.90;;;;;;5065545;28;20045;-63
2022/06/24 07:14:14;;;;;;;4.47;3.60;;;20.50;99.90;;;;;;5066315;28;20045;-64
2022/06/24 07:16:39;;;;;;;4.18;3.60;;;20.60;99.90;;;;;;5065722;28;20477;-64
2022/06/24 07:19:05;;;;;;;5.28;3.13;;;20.60;99.90;;;;;;5066120;28;20071;-64
2022/06/24 07:21:31;;;;;;;5.63;3.50;;;20.70;99.90;;;;;;5066677;28;20037;-64
2022/06/24 07:23:56;;;;;;;5.47;2.83;;;20.60;99.90;;;;;;5065699;28;20511;-64
2022/06/24 07:26:22;;;;;;;7.25;3.08;;;20.50;99.90;;;;;;5064979;28;20056;-64
2022/06/24 07:28:47;;;;;;;10.30;3.60;;;20.60;99.90;;;;;;5066319;28;20051;-63
2022/06/24 07:31:17;;;;;;;5.88;3.20;;;20.50;99.90;;;;;;5063956;28;20071;-64
2022/06/24 07:33:43;;;;;;;6.85;3.92;;;20.40;99.90;;;;;;5066130;28;20359;-64
2022/06/24 07:36:09;;;;;;;8.25;3.67;;;20.40;99.90;;;;;;5065861;28;20036;-64
2022/06/24 07:38:35;;;;;;;6.88;3.50;;;20.40;99.90;;;;;;5065704;28;20311;-63
2022/06/24 07:41:01;;;;;;;4.50;3.40;;;20.30;99.90;;;;;;5065928;28;20044;-64
2022/06/24 07:43:27;;;;;;;7.05;3.05;;;20.20;99.90;;;;;;5066330;28;20052;-63
2022/06/24 07:45:53;;;;;;;4.90;2.60;;;20.20;99.90;;;;;;5065229;28;20418;-63
2022/06/24 07:48:19;;;;;;;7.00;2.97;;;20.20;99.90;;;;;;5065776;28;20051;-63
2022/06/24 07:50:45;;;;;;;4.55;2.40;;;20.20;99.90;;;;;;5065773;28;20048;-63
2022/06/24 07:53:11;;;;;;;5.75;3.38;;;20.20;99.90;;;;;;5065656;28;20552;-64
2022/06/24 07:58:20;;;;;;;11.10;3.25;;;20.10;99.90;;;;;;5065038;28;20324;-64
2022/06/24 08:00:47;;;;;;;4.85;2.92;;;20.20;99.90;;;;;;5065523;28;20051;-63
2022/06/24 08:03:12;;;;;;;6.55;2.78;;;20.10;99.90;;;;;;5065653;28;20085;-64
2022/06/24 08:05:38;;;;;;;11.10;3.17;;;20.10;99.90;;;;;;5064819;28;20040;-63
2022/06/24 08:08:04;;;;;;;5.00;2.75;;;20.10;99.90;;;;;;5065794;28;20049;-63
2022/06/24 08:10:30;;;;;;;5.85;2.97;;;20.20;99.90;;;;;;5065922;28;20052;-64
2022/06/24 08:12:55;;;;;;;3.97;2.60;;;20.20;99.90;;;;;;5065016;28;20495;-64
2022/06/24 08:15:21;;;;;;;7.40;3.38;;;20.20;99.90;;;;;;5065527;28;20483;-64
2022/06/24 08:17:48;;;;;;;4.80;2.58;;;20.10;99.90;;;;;;5065310;28;20040;-64
2022/06/24 08:20:13;;;;;;;7.53;3.53;;;20.20;99.90;;;;;;5065006;28;20048;-63
2022/06/24 08:22:39;;;;;;;11.77;3.53;;;20.20;99.90;;;;;;5066348;28;20049;-63
2022/06/24 08:25:05;;;;;;;5.45;2.92;;;20.10;99.90;;;;;;5069550;28;20288;-64
2022/06/24 08:27:31;;;;;;;5.47;3.13;;;20.20;99.90;;;;;;5069338;28;20047;-64
2022/06/24 08:29:57;;;;;;;6.45;3.38;;;20.20;99.90;;;;;;5069510;28;20048;-64
2022/06/24 08:32:22;;;;;;;8.35;3.65;;;20.20;99.90;;;;;;5069685;28;20102;-64
2022/06/24 08:34:48;;;;;;;4.43;2.90;;;20.20;99.90;;;;;;5068472;28;20131;-64
2022/06/24 08:37:14;;;;;;;4.88;3.08;;;20.20;99.90;;;;;;5069244;28;20045;-64
2022/06/24 08:39:39;;;;;;;5.10;3.33;;;20.20;99.90;;;;;;5069346;28;20051;-64
2022/06/24 08:42:09;;;;;;;6.88;3.33;;;20.30;99.90;;;;;;5068385;28;20040;-63
2022/06/24 08:44:36;;;;;;;4.50;3.05;;;20.30;99.90;;;;;;5069472;28;20052;-64
2022/06/24 08:47:02;;;;;;;5.57;3.17;;;20.40;99.90;;;;;;5068976;28;20381;-64
2022/06/24 08:49:28;;;;;;;7.78;3.35;;;20.40;99.90;;;;;;5068885;28;20115;-64
2022/06/24 08:51:55;;;;;;;3.35;2.63;;;20.40;99.90;;;;;;5069309;28;20427;-64
2022/06/24 08:54:28;;;;;;;5.25;2.60;;;20.40;99.90;;;;;;5067085;28;20052;-64
2022/06/24 08:56:54;;;;;;;3.33;2.42;;;20.30;99.90;;;;;;5068842;28;20155;-64
2022/06/24 08:59:19;;;;;;;5.63;2.75;;;20.40;99.90;;;;;;5068680;28;20131;-64
2022/06/24 09:01:47;;;;;;;8.05;3.13;;;20.40;99.90;;;;;;5068179;28;20040;-64
2022/06/24 09:04:13;;;;;;;3.92;3.22;;;20.50;99.90;;;;;;5069114;28;20062;-64
2022/06/24 09:06:40;;;;;;;4.97;3.13;;;20.50;99.90;;;;;;5068833;28;20047;-63
2022/06/24 09:09:07;;;;;;;5.05;2.97;;;20.50;99.90;;;;;;5067819;28;20106;-64
2022/06/24 09:11:41;;;;;;;8.35;3.88;;;20.50;99.90;;;;;;5067614;28;20055;-64
2022/06/24 09:14:08;;;;;;;5.65;3.50;;;20.50;99.90;;;;;;5068216;28;20040;-64
2022/06/24 09:16:37;;;;;;;7.18;3.50;;;20.50;99.90;;;;;;5068285;28;20047;-64
2022/06/24 09:19:05;;;;;;;6.40;3.28;;;20.50;99.90;;;;;;5068760;28;20062;-63
2022/06/24 09:21:41;;;;;;;9.10;3.92;;;20.50;99.90;;;;;;5068705;28;20055;-64
2022/06/24 09:24:07;;;;;;;4.20;3.72;;;20.50;99.90;;;;;;5065849;28;20051;-64
2022/06/24 09:26:37;;;;;;;4.15;3.10;;;20.50;99.90;;;;;;5068718;28;20041;-64
2022/06/24 09:29:11;;;;;;;6.25;3.85;;;20.40;99.90;;;;;;5068579;28;20041;-64
2022/06/24 09:31:38;;;;;;;5.85;3.72;;;20.40;99.90;;;;;;5066205;28;20049;-64
2022/06/24 09:34:15;;;;;;;5.40;3.88;;;20.40;99.90;;;;;;5066555;28;20076;-63
2022/06/24 09:36:43;;;;;;;6.63;4.00;;;20.30;99.90;;;;;;5067513;28;20174;-64
2022/06/24 09:39:11;;;;;;;7.60;4.40;;;20.30;99.90;;;;;;5067876;28;20299;-64
2022/06/24 09:41:53;;;;;;;10.85;4.63;;;20.20;99.90;;;;;;5068045;28;20072;-63
2022/06/24 09:44:19;;;;;;;12.88;4.45;;;20.10;99.90;;;;;;5067709;28;20044;-63
2022/06/24 09:46:46;;;;;;;6.10;3.80;;;20.10;99.90;;;;;;5067990;28;20086;-64
2022/06/24 09:49:14;;;;;;;12.00;5.80;;;20.00;99.90;;;;;;5068091;28;20491;-63
2022/06/24 09:51:41;;;;;;;7.60;4.15;;;19.90;99.90;;;;;;5067315;28;20040;-63
2022/06/24 09:54:07;;;;;;;8.98;4.65;;;20.20;99.90;;;;;;5067863;28;20091;-64
2022/06/24 09:56:34;;;;;;;5.97;4.18;;;19.80;99.90;;;;;;5067831;28;20514;-63
2022/06/24 10:01:46;;;;;;;8.40;4.10;;;19.90;99.90;;;;;;5067494;28;20057;-63
2022/06/24 10:04:17;;;;;;;8.35;4.50;;;20.00;99.90;;;;;;5067505;28;20489;-64
2022/06/24 10:06:45;;;;;;;6.25;4.75;;;20.00;99.90;;;;;;5067211;28;20055;-64
2022/06/24 10:09:11;;;;;;;10.02;4.45;;;19.90;99.90;;;;;;5067627;28;20047;-63
2022/06/24 10:11:41;;;;;;;4.82;4.15;;;19.90;99.90;;;;;;5066822;28;20047;-63
2022/06/24 10:14:08;;;;;;;9.82;4.65;;;19.90;99.90;;;;;;5067140;28;20342;-63
2022/06/24 10:16:35;;;;;;;8.73;5.30;;;19.80;99.90;;;;;;5067710;28;20455;-64
2022/06/24 10:19:02;;;;;;;8.07;5.30;;;19.80;99.90;;;;;;5067039;28;20115;-64
2022/06/24 10:21:29;;;;;;;7.93;5.13;;;19.70;99.90;;;;;;5066954;28;20412;-64
2022/06/24 10:23:56;;;;;;;6.75;4.82;;;19.70;99.90;;;;;;5067438;28;20123;-64
2022/06/24 10:26:31;;;;;;;10.15;5.30;;;19.70;99.90;;;;;;5066558;28;20089;-64
2022/06/24 10:28:59;;;;;;;12.50;6.32;;;19.60;99.90;;;;;;5067017;28;20040;-63
2022/06/24 10:31:53;;;;;;;6.60;5.10;;;19.60;99.90;;;;;;5067394;28;20554;-64
2022/06/24 10:34:28;;;;;;;5.82;5.32;;;19.60;99.90;;;;;;5065122;28;20143;-63
2022/06/24 10:37:00;;;;;;;6.13;4.57;;;19.40;99.90;;;;;;5066876;28;20503;-64
2022/06/24 10:39:28;;;;;;;4.53;4.13;;;19.30;99.90;;;;;;5067727;28;20110;-64
2022/06/24 10:42:04;;;;;;;5.38;4.07;;;19.80;99.90;;;;;;5066175;28;20491;-63
2022/06/24 10:44:34;;;;;;;4.07;3.72;;;19.20;99.90;;;;;;5067387;28;20071;-64
2022/06/24 10:47:08;;;;;;;4.10;3.70;;;19.10;99.90;;;;;;5064877;28;20054;-64
2022/06/24 10:49:55;;;;;;;7.15;3.00;;;19.00;99.90;;;;;;5067145;28;20052;-64
2022/06/24 10:52:48;;;;;;;6.18;3.42;;;18.90;99.90;;;;;;5066840;28;20053;-64
2022/06/24 10:55:28;;;;;;;3.60;3.33;;;18.90;99.90;;;;;;5066004;28;20503;-64
2022/06/24 10:58:00;;;;;;;5.10;3.22;;;18.90;99.90;;;;;;5066459;28;20061;-64
2022/06/24 11:00:48;;;;;;;11.32;3.08;;;18.80;99.90;;;;;;5066747;28;20063;-64
2022/06/24 11:03:30;;;;;;;3.20;2.85;;;18.70;99.90;;;;;;5066839;28;20128;-63
2022/06/24 11:05:56;;;;;;;;;;;18.70;99.90;;;;;;5067096;28;20503;-64
2022/06/24 11:08:23;;;;;;;2.63;2.22;;;18.70;99.90;;;;;;5064378;28;19920;-63
2022/06/24 11:10:50;;;;;;;6.55;2.83;;;18.60;99.90;;;;;;5065948;28;20052;-64
2022/06/24 11:13:17;;;;;;;2.72;2.33;;;18.60;99.90;;;;;;5064951;28;20102;-64
2022/06/24 11:15:50;;;;;;;4.07;2.80;;;18.60;99.90;;;;;;5066178;28;20091;-64
2022/06/24 11:18:20;;;;;;;8.10;2.97;;;18.60;99.90;;;;;;5066311;28;20055;-64
2022/06/24 11:20:59;;;;;;;3.35;2.70;;;18.60;99.90;;;;;;5064724;28;20053;-64
2022/06/24 11:23:36;;;;;;;3.80;3.00;;;18.60;99.90;;;;;;5066175;28;20095;-64
2022/06/24 11:26:06;;;;;;;2.90;2.42;;;18.80;99.90;;;;;;5066462;28;20072;-63
2022/06/24 11:28:34;;;;;;;3.90;3.10;;;18.70;99.90;;;;;;5066669;28;20040;-63
2022/06/24 11:31:19;;;;;;;3.60;2.80;;;18.60;99.90;;;;;;5065640;28;20075;-64
2022/06/24 11:33:47;;;;;;;3.90;2.83;;;18.70;99.90;;;;;;5066124;28;20098;-64
2022/06/24 11:36:19;;;;;;;3.08;2.78;;;18.70;99.90;;;;;;5064032;28;20067;-64
2022/06/24 11:38:53;;;;;;;5.28;2.70;;;18.70;99.90;;;;;;5066152;28;20091;-63
2022/06/24 11:41:47;;;;;;;3.60;2.67;;;18.70;99.90;;;;;;5066035;28;20052;-63
2022/06/24 11:44:13;;;;;;;2.83;2.58;;;18.80;99.90;;;;;;5059368;28;20064;-63
2022/06/24 11:46:39;;;;;;;3.13;2.78;;;18.70;99.90;;;;;;5066266;28;20033;-63
2022/06/24 11:49:11;;;;;;;5.15;2.70;;;18.80;99.90;;;;;;5066182;28;20502;-64
2022/06/24 11:51:38;;;;;;;3.90;2.80;;;18.80;99.90;;;;;;5065240;28;20091;-63
2022/06/24 11:54:07;;;;;;;2.78;2.58;;;18.70;99.90;;;;;;5065920;28;20115;-64
2022/06/24 11:56:35;;;;;;;3.13;2.83;;;18.60;99.90;;;;;;5066132;28;20449;-63
2022/06/24 11:59:02;;;;;;;5.80;2.47;;;18.70;99.90;;;;;;5079541;28;20060;-64
2022/06/24 12:01:29;;;;;;;3.65;2.65;;;18.70;99.90;;;;;;5065818;28;20048;-64
2022/06/24 12:03:58;;;;;;;4.03;2.92;;;18.70;99.90;;;;;;5065638;28;20406;-64
2022/06/24 12:06:25;;;;;;;2.70;2.50;;;18.80;99.90;;;;;;5065863;28;20275;-64
2022/06/24 12:08:51;;;;;;;2.95;2.65;;;18.80;99.90;;;;;;5066095;28;20048;-64
2022/06/24 12:11:19;;;;;;;3.85;3.45;;;18.80;99.90;;;;;;5064599;28;20133;-63
2022/06/24 12:13:57;;;;;;;3.03;2.75;;;18.80;99.90;;;;;;5064885;28;20040;-64
2022/06/24 12:16:24;;;;;;;5.13;3.60;;;18.80;99.90;;;;;;5065824;28;20116;-64
2022/06/24 12:18:50;;;;;;;4.15;2.80;;;18.80;99.90;;;;;;5064738;28;20040;-64
2022/06/24 12:21:27;;;;;;;4.50;2.92;;;18.80;99.90;;;;;;5066001;28;20110;-64
2022/06/24 12:23:53;;;;;;;5.50;2.83;;;18.90;99.90;;;;;;5064453;28;20080;-65
2022/06/24 12:26:21;;;;;;;3.65;3.03;;;18.90;99.90;;;;;;5064971;28;20119;-65
2022/06/24 12:29:04;;;;;;;3.47;2.70;;;18.90;99.90;;;;;;5065281;28;20037;-65
2022/06/24 12:31:32;;;;;;;3.38;3.08;;;19.00;99.90;;;;;;5064630;28;20091;-65
2022/06/24 12:33:58;;;;;;;4.22;3.83;;;19.10;99.90;;;;;;5064510;28;20090;-65
2022/06/24 12:36:35;;;;;;;3.40;3.10;;;19.20;99.90;;;;;;5065540;28;20414;-65
2022/06/24 12:39:07;;;;;;;4.28;3.22;;;19.30;99.90;;;;;;5065458;28;20063;-65
2022/06/24 12:41:47;;;;;;;3.80;3.40;;;19.40;99.90;;;;;;5063740;28;20431;-65
2022/06/24 12:44:14;;;;;;;3.53;3.22;;;19.50;99.90;;;;;;5065361;28;20036;-65
2022/06/24 12:50:35;;;;;;;4.50;3.42;;;19.50;99.90;;;;;;5064599;28;20097;-65
2022/06/24 12:52:39;;;;;;;5.05;3.85;;;19.70;99.90;;;;;;5064119;28;20052;-65
2022/06/24 12:55:07;;;;;;;4.43;4.03;;;19.80;99.90;;;;;;5063553;28;20067;-65
2022/06/24 12:57:34;;;;;;;5.07;4.20;;;19.80;99.90;;;;;;5065483;28;20048;-65
2022/06/24 13:00:01;;;;;;;5.57;5.03;;;19.80;99.90;;;;;;5065074;28;20049;-65
2022/06/24 13:02:26;;;;;;;6.63;4.43;;;19.90;99.90;;;;;;5064699;28;20063;-65
2022/06/24 13:04:52;;;;;;;5.10;4.50;;;20.00;99.90;;;;;;5065103;28;20037;-65